Terminal Aerodrome Forecast
Issued by NWS

Home | Current Version | Previous Version | Text Only | Print | Product List | Glossary On
Versions: 1 2 3 4 5 6 7 8 9 10 11 12 13 14 15 16
000
FTUS46 KLOX 091803 CCA
TAFWJF
TAF COR
KWJF 091803Z 0918/1018 28010KT P6SM BKN060
     FM092000 27014G20KT P6SM SCT060
     FM100800 27010KT P6SM BKN050=

USA.gov is the U.S. government's official web portal to all federal, state and local government web resources and services.